EGTK

Oxford (Kidlington) Airport

Kidlington, United Kingdom
METAR EGTK 190650Z 25012KT CAVOK 01/M01 Q1007
Observed Flight Rules
Jan-19 @ 06:50 UTC (40 minutes ago) Visual Flight Rules
Wind Visibility Clouds
250° at 12 knots 10,000+ meters
  • Clear skies
Temperatures Readings
Current 1°C / 34°F
Dewpoint -1°C / 30°F
Humidity 87%
Altimeter 29.73" Hg
Pressure 1007 hPa
Elevation 82
METAR EGTK 190650Z 25012KT CAVOK 01/M01 Q1007
Observed Flight Rules
Jan-19 @ 06:50 UTC
(40 minutes ago)
VFR
Wind Visibility
250° at 12 knots 10,000+ meters
Clouds
  • Clear skies
Temperature Dewpoint
1°C / 34°F -1°C / 30°F
Humidity Altimeter Pressure
87% 29.73" Hg 1007 hPa